Time;durP1;ratioP1;P1;durP2;ratioP2;P2;SDS_P1;SDS_P2;PMS_P1;PMS_P2;Temp;Humidity;BMP_temperature;BMP_pressure;BME280_temperature;BME280_humidity;BME280_pressure;Samples;Min_cycle;Max_cycle;Signal;HPM_P1;HPM_P2
2022/04/18 04:05:30;;;;;;;9.73;8.17;;;0.40;99.90;;;;;;5376778;23;20518;-77
2022/04/18 04:07:59;;;;;;;9.50;7.83;;;0.40;99.90;;;;;;4912371;29;20641;-77
2022/04/18 04:10:27;;;;;;;12.10;8.20;;;0.40;99.90;;;;;;4918546;29;20896;-76
2022/04/18 04:12:55;;;;;;;9.80;7.37;;;0.40;99.90;;;;;;4899956;29;20970;-77
2022/04/18 04:15:24;;;;;;;8.40;6.77;;;0.40;99.90;;;;;;4900122;29;20457;-77
2022/04/18 04:17:52;;;;;;;8.23;6.67;;;0.40;99.90;;;;;;4900117;29;20894;-77
2022/04/18 04:20:22;;;;;;;9.23;7.00;;;0.40;99.90;;;;;;4899555;29;20457;-78
2022/04/18 04:22:51;;;;;;;8.73;6.20;;;0.40;99.90;;;;;;4903185;29;20458;-77
2022/04/18 04:25:20;;;;;;;10.00;6.50;;;0.40;99.90;;;;;;4918542;29;20464;-77
2022/04/18 04:27:48;;;;;;;8.43;6.73;;;0.40;99.90;;;;;;4918400;29;20481;-77
2022/04/18 04:30:16;;;;;;;8.17;6.20;;;0.40;99.90;;;;;;4918443;29;20592;-77
2022/04/18 04:32:44;;;;;;;8.27;6.30;;;0.40;99.90;;;;;;4917376;29;20476;-77
2022/04/18 04:35:12;;;;;;;8.60;6.40;;;0.50;99.90;;;;;;4916164;29;20484;-76
2022/04/18 04:37:40;;;;;;;9.30;6.70;;;0.50;99.90;;;;;;4917635;29;20458;-76
2022/04/18 04:40:11;;;;;;;10.03;6.80;;;0.50;99.90;;;;;;4915613;29;20446;-77
2022/04/18 04:42:39;;;;;;;8.97;7.07;;;0.50;99.90;;;;;;4917993;29;20533;-77
2022/04/18 04:45:09;;;;;;;8.40;6.90;;;0.50;99.90;;;;;;4917962;29;20536;-77
2022/04/18 04:47:37;;;;;;;8.27;7.00;;;0.50;99.90;;;;;;4917721;29;20453;-76
2022/04/18 04:50:05;;;;;;;7.50;6.70;;;0.50;99.90;;;;;;4917243;29;20584;-76
2022/04/18 04:52:33;;;;;;;9.73;6.67;;;0.50;99.90;;;;;;4917308;29;20496;-77
2022/04/18 04:55:01;;;;;;;10.70;7.90;;;0.50;99.90;;;;;;4916790;29;20551;-78
2022/04/18 04:57:31;;;;;;;9.33;7.33;;;0.50;99.90;;;;;;4917446;29;20496;-77
2022/04/18 04:59:59;;;;;;;9.50;7.40;;;0.50;99.90;;;;;;4914826;29;20552;-77
2022/04/18 05:02:27;;;;;;;9.80;7.23;;;0.60;99.90;;;;;;4917686;29;20544;-77
2022/04/18 05:04:55;;;;;;;8.93;7.50;;;0.60;99.90;;;;;;4917275;29;20902;-78
2022/04/18 05:07:23;;;;;;;10.40;7.20;;;0.70;99.90;;;;;;4917319;29;20534;-78
2022/04/18 05:09:51;;;;;;;8.83;6.73;;;0.70;99.90;;;;;;4917582;29;20535;-77
2022/04/18 05:12:19;;;;;;;8.53;6.70;;;0.70;99.90;;;;;;4917493;29;20539;-77
2022/04/18 05:14:49;;;;;;;8.73;6.97;;;0.80;99.90;;;;;;4917551;29;20453;-77
2022/04/18 05:17:18;;;;;;;8.63;6.03;;;0.80;99.90;;;;;;4916771;29;20483;-77
2022/04/18 05:19:46;;;;;;;9.53;6.50;;;0.90;99.90;;;;;;4914498;29;20527;-78
2022/04/18 05:22:15;;;;;;;8.97;7.00;;;1.00;99.90;;;;;;4904008;29;20548;-78
2022/04/18 05:24:43;;;;;;;8.40;6.40;;;1.00;99.90;;;;;;4899091;29;20453;-75
2022/04/18 05:27:15;;;;;;;9.70;6.30;;;1.10;99.90;;;;;;4901925;29;20487;-77
2022/04/18 05:29:43;;;;;;;9.03;6.37;;;1.20;99.90;;;;;;4901127;29;20486;-77
2022/04/18 05:32:12;;;;;;;8.10;6.07;;;1.30;99.90;;;;;;4899658;29;20481;-76
2022/04/18 05:34:44;;;;;;;7.43;6.53;;;1.30;99.90;;;;;;4898321;29;20555;-78
2022/04/18 05:37:12;;;;;;;8.23;6.23;;;1.40;99.90;;;;;;4898787;29;20532;-75
2022/04/18 05:39:40;;;;;;;9.07;6.17;;;1.50;99.90;;;;;;4897988;29;20874;-76
2022/04/18 05:42:08;;;;;;;7.53;5.77;;;1.60;99.90;;;;;;4902181;29;20489;-76
2022/04/18 05:44:36;;;;;;;9.83;5.63;;;1.70;99.90;;;;;;4898253;29;20434;-77
2022/04/18 05:47:05;;;;;;;8.23;6.00;;;1.80;99.90;;;;;;4903444;29;20561;-77
2022/04/18 05:49:35;;;;;;;7.67;6.13;;;2.00;99.90;;;;;;4914013;29;20924;-76
2022/04/18 05:52:03;;;;;;;7.67;5.30;;;2.10;99.90;;;;;;4922034;29;20500;-76
2022/04/18 05:54:31;;;;;;;8.77;5.30;;;2.30;99.90;;;;;;4935862;29;20568;-77
2022/04/18 05:57:01;;;;;;;8.07;5.70;;;2.50;99.90;;;;;;4921600;29;20564;-77
2022/04/18 05:59:30;;;;;;;6.60;4.90;;;2.70;99.90;;;;;;4916627;29;20510;-77
2022/04/18 06:01:58;;;;;;;6.60;4.83;;;2.90;99.90;;;;;;4898972;29;20553;-78
2022/04/18 06:04:26;;;;;;;6.60;4.70;;;3.20;99.90;;;;;;4901645;29;20881;-77
2022/04/18 06:06:55;;;;;;;7.37;5.10;;;3.50;99.90;;;;;;4916701;29;20560;-77
2022/04/18 06:09:24;;;;;;;6.67;4.73;;;4.00;99.90;;;;;;4910619;29;20260;-78
2022/04/18 06:11:52;;;;;;;6.30;4.20;;;4.70;99.90;;;;;;4898966;29;20253;-78
2022/04/18 06:14:20;;;;;;;6.63;4.50;;;5.70;99.90;;;;;;4897822;29;20304;-77
2022/04/18 06:16:48;;;;;;;6.57;4.17;;;6.10;99.90;;;;;;4899129;29;20305;-75
2022/04/18 06:19:16;;;;;;;7.20;4.63;;;6.40;99.90;;;;;;4913764;29;20201;-74
2022/04/18 06:21:44;;;;;;;6.93;4.30;;;6.50;99.90;;;;;;4916792;29;20241;-75
2022/04/18 06:24:16;;;;;;;5.80;4.53;;;6.80;99.90;;;;;;4915422;29;20208;-77
2022/04/18 06:26:44;;;;;;;4.37;3.63;;;7.60;99.90;;;;;;4906888;29;20244;-76
2022/04/18 06:29:12;;;;;;;9.20;4.90;;;8.10;99.90;;;;;;4897655;29;20230;-75
2022/04/18 06:31:40;;;;;;;6.83;4.07;;;8.90;99.80;;;;;;4910901;29;20646;-77
2022/04/18 06:34:09;;;;;;;5.43;4.37;;;8.60;99.90;;;;;;4910941;29;20220;-77
2022/04/18 06:36:37;;;;;;;5.73;3.80;;;9.20;99.90;;;;;;4915778;29;20217;-76
2022/04/18 06:39:05;;;;;;;5.20;3.80;;;9.60;99.10;;;;;;4914298;29;20320;-77
2022/04/18 06:41:34;;;;;;;6.20;4.23;;;10.00;97.00;;;;;;4915971;29;20209;-77
2022/04/18 06:44:02;;;;;;;5.67;4.07;;;10.90;95.80;;;;;;4913016;29;20730;-78
2022/04/18 06:46:30;;;;;;;4.97;3.67;;;12.10;92.80;;;;;;4912215;29;20212;-76
2022/04/18 06:48:59;;;;;;;5.73;3.63;;;12.90;89.90;;;;;;4915771;29;20683;-77
2022/04/18 06:51:27;;;;;;;5.23;3.70;;;13.10;87.00;;;;;;4905905;29;20232;-75
2022/04/18 06:53:55;;;;;;;5.83;3.03;;;13.40;84.00;;;;;;4913741;29;20311;-77
2022/04/18 06:59:10;;;;;;;5.23;3.20;;;13.80;76.90;;;;;;4914142;29;20213;-77
2022/04/18 07:01:38;;;;;;;5.03;3.27;;;12.50;80.60;;;;;;4914573;29;20244;-76
2022/04/18 07:04:07;;;;;;;5.77;3.53;;;13.20;77.30;;;;;;4916140;29;20256;-76
2022/04/18 07:06:35;;;;;;;5.40;3.33;;;13.80;76.60;;;;;;4915497;29;20220;-76
2022/04/18 07:09:03;;;;;;;4.57;3.57;;;14.20;74.40;;;;;;4914664;29;20653;-76
2022/04/18 07:11:32;;;;;;;4.50;3.70;;;14.10;76.50;;;;;;4907850;29;20221;-77
2022/04/18 07:14:00;;;;;;;4.07;3.40;;;14.40;73.90;;;;;;4915784;29;20668;-77
2022/04/18 07:16:30;;;;;;;3.77;3.20;;;15.00;74.30;;;;;;4915980;29;20303;-78
2022/04/18 07:18:58;;;;;;;5.77;3.63;;;15.20;73.80;;;;;;4914235;29;20299;-76
2022/04/18 07:21:27;;;;;;;8.73;4.10;;;15.60;71.10;;;;;;4915708;29;20743;-76
2022/04/18 07:23:56;;;;;;;4.90;3.20;;;16.40;68.00;;;;;;4915889;29;20220;-76
2022/04/18 07:26:24;;;;;;;4.10;3.20;;;16.70;63.60;;;;;;4918351;29;20221;-78
2022/04/18 07:28:53;;;;;;;4.27;2.93;;;16.40;63.90;;;;;;4912776;29;20742;-76
2022/04/18 07:31:21;;;;;;;4.37;3.10;;;16.40;62.10;;;;;;4915462;29;20213;-76
2022/04/18 07:33:51;;;;;;;5.53;3.60;;;17.10;62.30;;;;;;4914267;29;20216;-77
2022/04/18 07:36:19;;;;;;;3.83;3.10;;;15.50;61.20;;;;;;4897934;29;20724;-76
2022/04/18 07:38:49;;;;;;;4.23;3.20;;;15.80;63.90;;;;;;4896871;29;20336;-76
2022/04/18 07:41:19;;;;;;;4.63;3.13;;;16.10;61.90;;;;;;4905857;29;20232;-77
2022/04/18 07:43:48;;;;;;;4.70;3.43;;;16.50;63.10;;;;;;4913370;29;20293;-76
2022/04/18 07:46:17;;;;;;;4.87;3.47;;;16.80;63.20;;;;;;4914753;29;20216;-77
2022/04/18 07:48:48;;;;;;;5.47;3.03;;;17.50;59.70;;;;;;4914765;29;20243;-78
2022/04/18 07:54:00;;;;;;;3.77;3.03;;;17.90;58.00;;;;;;4912243;29;20217;-77
2022/04/18 07:56:29;;;;;;;4.00;2.93;;;18.60;56.90;;;;;;4910157;29;20292;-76
2022/04/18 07:58:58;;;;;;;5.63;2.97;;;17.80;55.80;;;;;;4896516;29;20300;-75
2022/04/18 08:01:30;;;;;;;4.97;3.63;;;17.70;55.20;;;;;;4896582;29;20198;-78
2022/04/18 08:04:00;;;;;;;4.47;2.90;;;16.90;55.20;;;;;;4898235;29;20228;-76
2022/04/18 08:06:32;;;;;;;4.80;3.07;;;17.10;56.20;;;;;;4895956;29;20281;-77
2022/04/18 08:09:01;;;;;;;3.33;2.53;;;17.30;54.70;;;;;;4896564;29;20229;-76
2022/04/18 08:11:29;;;;;;;3.20;2.70;;;16.90;54.70;;;;;;4900154;29;20320;-78
2022/04/18 08:13:58;;;;;;;3.63;2.90;;;16.90;55.80;;;;;;4909701;29;20265;-75
2022/04/18 08:16:26;;;;;;;3.67;2.50;;;16.70;55.20;;;;;;4918661;29;20658;-77
2022/04/18 08:18:55;;;;;;;4.43;2.90;;;17.40;54.20;;;;;;4918625;29;20231;-77
2022/04/18 08:21:24;;;;;;;4.33;3.00;;;17.60;54.10;;;;;;4917539;29;20299;-75
2022/04/18 08:23:53;;;;;;;4.10;2.77;;;16.10;55.60;;;;;;4917806;29;20299;-76
2022/04/18 08:26:28;;;;;;;5.03;2.90;;;16.10;56.60;;;;;;4899486;29;20207;-78
2022/04/18 08:28:56;;;;;;;4.17;2.70;;;16.20;58.60;;;;;;4912486;29;20621;-77
2022/04/18 08:31:24;;;;;;;4.00;2.90;;;16.60;53.30;;;;;;4916003;29;20308;-78
2022/04/18 08:33:52;;;;;;;3.40;2.90;;;16.50;55.50;;;;;;4915693;29;20213;-77
2022/04/18 08:36:21;;;;;;;3.33;2.77;;;16.60;56.60;;;;;;4899293;29;20244;-78
2022/04/18 08:38:52;;;;;;;3.70;2.47;;;17.80;55.50;;;;;;4898522;29;20711;-77
2022/04/18 08:41:25;;;;;;;4.07;2.57;;;19.20;51.20;;;;;;4915529;29;20205;-77
2022/04/18 08:43:56;;;;;;;4.27;2.80;;;19.70;50.80;;;;;;4917387;29;20241;-77
2022/04/18 08:46:25;;;;;;;3.27;2.60;;;20.20;48.90;;;;;;4915707;29;20232;-76
2022/04/18 08:54:33;;;;;;;4.63;2.80;;;19.40;48.30;;;;;;4901966;29;20225;-76
2022/04/18 08:57:01;;;;;;;3.33;2.63;;;18.70;47.10;;;;;;4898624;29;20284;-77
2022/04/18 08:59:29;;;;;;;4.37;2.83;;;17.70;49.50;;;;;;4898517;29;20675;-76
2022/04/18 09:01:57;;;;;;;4.50;2.70;;;18.40;49.60;;;;;;4915442;29;20285;-77
2022/04/18 09:04:26;;;;;;;4.00;2.73;;;17.50;49.90;;;;;;4917313;29;20294;-77
2022/04/18 09:06:54;;;;;;;4.37;2.80;;;17.60;49.70;;;;;;4917628;29;20288;-76
2022/04/18 09:09:29;;;;;;;3.23;2.60;;;18.00;50.30;;;;;;4911177;29;20253;-77
2022/04/18 09:11:58;;;;;;;4.30;2.50;;;18.80;49.40;;;;;;4898904;29;20229;-76
2022/04/18 09:14:27;;;;;;;3.97;2.70;;;18.90;47.90;;;;;;4898366;29;20261;-77
2022/04/18 09:16:56;;;;;;;3.23;2.40;;;18.10;48.90;;;;;;4901720;29;20229;-77
2022/04/18 09:19:24;;;;;;;4.30;2.90;;;18.40;48.80;;;;;;4916252;29;20201;-77
2022/04/18 09:22:00;;;;;;;3.93;3.07;;;18.50;48.70;;;;;;4916336;29;20236;-73
2022/04/18 09:24:35;;;;;;;3.13;2.53;;;19.10;48.30;;;;;;4918113;29;20217;-77
2022/04/18 09:27:15;;;;;;;4.53;2.60;;;20.30;49.60;;;;;;4915740;29;20212;-77
2022/04/18 09:29:43;;;;;;;3.87;2.80;;;21.60;46.70;;;;;;4903609;29;20308;-77
2022/04/18 09:32:13;;;;;;;3.58;2.50;;;21.30;44.90;;;;;;4900053;29;20308;-76
2022/04/18 09:34:42;;;;;;;4.03;2.90;;;21.60;47.90;;;;;;4916792;29;20308;-74
2022/04/18 09:37:14;;;;;;;3.67;2.67;;;22.20;44.20;;;;;;4917095;29;20325;-76
2022/04/18 09:39:44;;;;;;;3.47;2.72;;;22.80;43.70;;;;;;4910604;29;20236;-77
2022/04/18 09:42:14;;;;;;;3.90;2.47;;;22.30;42.50;;;;;;4909268;29;20244;-76
2022/04/18 09:44:43;;;;;;;3.70;2.58;;;21.50;44.60;;;;;;4903643;29;20237;-75
2022/04/18 09:47:16;;;;;;;4.85;2.50;;;22.00;43.30;;;;;;4897647;29;20272;-76
2022/04/18 09:49:46;;;;;;;3.38;2.80;;;22.60;43.90;;;;;;4897252;29;20552;-76
2022/04/18 09:52:16;;;;;;;2.78;2.22;;;22.90;43.30;;;;;;4907420;29;20233;-77
2022/04/18 09:54:45;;;;;;;3.95;2.63;;;21.50;41.60;;;;;;4916765;29;20200;-76
2022/04/18 09:57:23;;;;;;;3.75;2.42;;;21.80;43.90;;;;;;4913270;29;20208;-76
2022/04/18 09:59:54;;;;;;;4.15;2.80;;;22.20;42.90;;;;;;4916323;29;20248;-77
2022/04/18 10:02:24;;;;;;;2.50;2.30;;;22.30;44.10;;;;;;4916395;29;20590;-76
2022/04/18 10:04:53;;;;;;;4.22;2.80;;;22.30;44.70;;;;;;4915980;29;20308;-76
2022/04/18 10:07:22;;;;;;;4.63;3.08;;;22.30;42.90;;;;;;4916226;29;20267;-76
2022/04/18 10:09:50;;;;;;;4.85;3.00;;;21.80;41.10;;;;;;4909952;29;20255;-77
2022/04/18 10:12:20;;;;;;;4.50;2.60;;;21.30;41.60;;;;;;4898576;29;20664;-78
2022/04/18 10:14:49;;;;;;;3.50;2.42;;;20.80;41.50;;;;;;4902806;29;20211;-77
2022/04/18 10:17:19;;;;;;;3.33;2.50;;;21.30;41.80;;;;;;4916178;29;20252;-76
2022/04/18 10:20:04;;;;;;;3.30;2.67;;;21.00;43.40;;;;;;4915814;29;20205;-74
2022/04/18 10:23:03;;;;;;;2.87;2.20;;;20.70;40.90;;;;;;4916193;29;20260;-77
2022/04/18 10:25:47;;;;;;;4.30;2.23;;;21.10;40.40;;;;;;4925645;29;20268;-77
2022/04/18 10:28:17;;;;;;;4.87;2.57;;;20.70;39.00;;;;;;4900397;29;20204;-78
2022/04/18 10:30:51;;;;;;;3.17;2.40;;;20.20;38.90;;;;;;4896963;29;20217;-77
2022/04/18 10:33:20;;;;;;;4.00;2.50;;;20.00;40.90;;;;;;4900978;29;20270;-78
2022/04/18 10:35:53;;;;;;;4.07;2.67;;;19.60;41.30;;;;;;4910462;29;20237;-77
2022/04/18 10:38:26;;;;;;;4.93;2.57;;;19.30;40.50;;;;;;4896272;29;20237;-75
2022/04/18 10:41:14;;;;;;;2.27;2.07;;;19.30;41.00;;;;;;4896093;29;20245;-75
2022/04/18 10:44:01;;;;;;;3.77;2.80;;;20.20;42.60;;;;;;4903482;29;20216;-77
2022/04/18 10:46:30;;;;;;;4.30;2.47;;;20.10;40.50;;;;;;4916406;29;20197;-76
2022/04/18 10:49:00;;;;;;;2.87;2.20;;;19.20;41.20;;;;;;4916237;29;20217;-77
2022/04/18 10:51:35;;;;;;;3.13;2.40;;;19.00;40.70;;;;;;4901269;29;20256;-76
2022/04/18 10:54:11;;;;;;;3.33;2.40;;;18.50;42.50;;;;;;4898467;29;20236;-75
2022/04/18 10:56:48;;;;;;;4.20;2.67;;;18.70;41.30;;;;;;4916257;29;20640;-77
2022/04/18 10:59:17;;;;;;;3.13;2.00;;;19.00;41.00;;;;;;4916209;29;20217;-75
2022/04/18 11:01:50;;;;;;;2.60;2.03;;;19.50;42.30;;;;;;4916236;29;20747;-77
2022/04/18 11:04:23;;;;;;;3.40;2.60;;;20.30;42.60;;;;;;4915673;29;20224;-76
2022/04/18 11:07:00;;;;;;;4.03;2.80;;;19.80;40.60;;;;;;4915956;29;20573;-77
2022/04/18 11:09:30;;;;;;;2.30;1.80;;;20.10;41.40;;;;;;4916121;29;20216;-77
2022/04/18 11:12:08;;;;;;;3.03;2.07;;;19.60;40.70;;;;;;4915718;29;20280;-77
2022/04/18 11:14:55;;;;;;;3.10;1.90;;;18.90;40.90;;;;;;4916060;29;20292;-76
2022/04/18 11:17:42;;;;;;;2.10;1.90;;;19.10;43.20;;;;;;4915778;29;20200;-77
2022/04/18 11:20:26;;;;;;;3.37;2.30;;;18.20;42.60;;;;;;4915567;29;20211;-76
2022/04/18 11:23:23;;;;;;;4.10;2.30;;;17.30;43.70;;;;;;4916059;29;20252;-78
2022/04/18 11:25:53;;;;;;;4.47;3.43;;;16.90;44.00;;;;;;4915922;29;20296;-78
2022/04/18 11:28:23;;;;;;;3.40;2.43;;;16.90;46.10;;;;;;4916221;29;20219;-77
2022/04/18 11:30:51;;;;;;;4.13;2.07;;;16.70;45.90;;;;;;4910479;29;20268;-76
2022/04/18 11:33:21;;;;;;;4.10;2.00;;;17.10;46.60;;;;;;4896774;29;20285;-78
2022/04/18 11:35:50;;;;;;;2.90;1.80;;;17.10;46.10;;;;;;4897210;29;20245;-77
2022/04/18 11:38:18;;;;;;;4.03;2.37;;;17.40;46.60;;;;;;4897081;29;20297;-76
2022/04/18 11:40:46;;;;;;;3.40;2.30;;;17.00;45.00;;;;;;4897054;29;20209;-77
2022/04/18 11:43:16;;;;;;;2.87;1.90;;;17.10;46.20;;;;;;4896825;29;20245;-78
2022/04/18 11:45:45;;;;;;;2.67;1.70;;;16.80;45.90;;;;;;4899573;29;20214;-77
2022/04/18 11:48:13;;;;;;;2.80;2.00;;;16.20;46.10;;;;;;4900941;29;20224;-77
2022/04/18 11:50:44;;;;;;;3.53;2.10;;;16.20;47.80;;;;;;4919584;29;20295;-77
2022/04/18 11:53:18;;;;;;;2.40;1.87;;;16.60;48.60;;;;;;4916772;29;20682;-76
2022/04/18 11:55:48;;;;;;;2.97;2.00;;;16.40;47.30;;;;;;4908677;29;20263;-76
2022/04/18 11:58:19;;;;;;;2.87;2.10;;;15.30;47.60;;;;;;4919091;29;20662;-78
2022/04/18 12:09:08;;;;;;;3.20;2.13;;;15.10;48.90;;;;;;4906894;29;20295;-76
2022/04/18 12:11:37;;;;;;;4.47;2.23;;;15.30;50.50;;;;;;4910726;29;20253;-76
2022/04/18 12:14:05;;;;;;;2.87;2.10;;;15.70;52.10;;;;;;4923769;29;20651;-76
2022/04/18 12:16:34;;;;;;;2.47;1.90;;;15.80;50.30;;;;;;4924373;29;20317;-77
2022/04/18 12:19:02;;;;;;;4.03;2.20;;;15.90;51.50;;;;;;4919024;29;20228;-76
2022/04/18 12:21:33;;;;;;;2.80;1.87;;;15.90;49.50;;;;;;4918881;29;20209;-76
2022/04/18 12:24:01;;;;;;;2.60;2.00;;;15.50;48.40;;;;;;4918758;29;20256;-75
2022/04/18 12:26:31;;;;;;;2.87;1.90;;;15.10;49.70;;;;;;4918715;29;20629;-75
2022/04/18 12:29:00;;;;;;;2.77;1.97;;;15.40;49.80;;;;;;4918663;29;20619;-75
2022/04/18 12:31:29;;;;;;;2.10;1.90;;;15.70;50.10;;;;;;4918684;29;20221;-76
2022/04/18 12:33:58;;;;;;;4.87;2.10;;;16.10;52.60;;;;;;4918433;29;20231;-76
2022/04/18 12:36:27;;;;;;;2.37;2.00;;;16.20;50.80;;;;;;4918756;29;20800;-78
2022/04/18 12:38:57;;;;;;;3.83;2.07;;;16.50;51.40;;;;;;4918585;29;20217;-76
2022/04/18 12:41:30;;;;;;;2.97;2.10;;;16.30;49.70;;;;;;4918881;29;20298;-76
2022/04/18 12:43:58;;;;;;;2.10;1.80;;;16.00;51.00;;;;;;4918444;29;20213;-76
2022/04/18 12:46:30;;;;;;;3.03;2.20;;;15.80;51.80;;;;;;4918885;29;20217;-74
2022/04/18 12:49:04;;;;;;;1.60;1.50;;;15.60;50.30;;;;;;4918363;29;20221;-77
2022/04/18 12:51:35;;;;;;;2.60;1.87;;;15.70;53.00;;;;;;4918208;29;20647;-76
2022/04/18 12:54:05;;;;;;;3.03;2.27;;;15.50;49.10;;;;;;4917929;29;20240;-77
2022/04/18 12:56:33;;;;;;;2.73;1.60;;;14.90;50.50;;;;;;4917363;29;20208;-76
2022/04/18 12:59:04;;;;;;;2.83;2.20;;;15.10;50.40;;;;;;4918281;29;20586;-76
2022/04/18 13:01:35;;;;;;;3.17;2.00;;;15.30;51.30;;;;;;4918061;29;20291;-76
2022/04/18 13:04:05;;;;;;;2.73;2.20;;;15.20;50.80;;;;;;4918497;29;20193;-76
2022/04/18 13:06:34;;;;;;;3.87;1.70;;;15.10;51.10;;;;;;4918630;29;20224;-77
2022/04/18 13:09:07;;;;;;;2.23;1.83;;;15.10;51.10;;;;;;4920186;29;20585;-75
2022/04/18 13:11:39;;;;;;;3.33;2.00;;;15.40;51.90;;;;;;4917925;29;20213;-76
2022/04/18 13:14:09;;;;;;;2.17;1.60;;;15.40;52.30;;;;;;4917905;29;20232;-76
2022/04/18 13:16:39;;;;;;;1.70;1.60;;;15.80;53.10;;;;;;4918249;29;20197;-77
2022/04/18 13:19:11;;;;;;;2.23;1.70;;;15.80;50.80;;;;;;4917505;29;20260;-75
2022/04/18 13:21:40;;;;;;;3.50;1.73;;;15.70;50.60;;;;;;4918072;29;20643;-76
2022/04/18 13:24:11;;;;;;;1.90;1.63;;;15.80;52.30;;;;;;4917504;29;20303;-76
2022/04/18 13:26:39;;;;;;;3.43;1.50;;;15.60;49.50;;;;;;4917779;29;20642;-77
2022/04/18 13:29:07;;;;;;;1.80;1.70;;;15.30;51.10;;;;;;4917776;29;20216;-76
2022/04/18 13:31:35;;;;;;;2.27;1.77;;;15.20;50.60;;;;;;4917431;29;20220;-76
2022/04/18 13:34:04;;;;;;;2.47;2.00;;;15.00;52.40;;;;;;4917627;29;20243;-77
2022/04/18 13:36:33;;;;;;;2.33;1.80;;;15.10;52.20;;;;;;4917806;29;20696;-75
2022/04/18 13:39:03;;;;;;;2.23;1.70;;;15.00;51.00;;;;;;4917931;29;20224;-77
2022/04/18 13:41:33;;;;;;;3.10;1.70;;;15.10;51.00;;;;;;4917348;29;20252;-77
2022/04/18 13:44:01;;;;;;;2.93;2.00;;;15.40;56.20;;;;;;4917865;29;20629;-75
2022/04/18 13:46:31;;;;;;;1.63;1.50;;;15.70;52.60;;;;;;4909304;29;20316;-77
2022/04/18 13:49:00;;;;;;;2.97;1.90;;;15.80;51.00;;;;;;4898625;29;20316;-78
2022/04/18 13:51:30;;;;;;;2.83;1.73;;;15.40;50.50;;;;;;4898781;29;20237;-78
2022/04/18 13:53:58;;;;;;;1.70;1.53;;;15.90;53.40;;;;;;4898764;29;20691;-74
2022/04/18 13:56:27;;;;;;;3.17;1.53;;;15.60;51.00;;;;;;4899038;29;20280;-78
2022/04/18 13:58:57;;;;;;;2.50;1.50;;;15.70;52.30;;;;;;4899347;29;20260;-77
2022/04/18 14:01:26;;;;;;;2.60;1.53;;;16.00;51.90;;;;;;4899389;29;20209;-76
2022/04/18 14:03:55;;;;;;;3.13;1.70;;;16.00;53.40;;;;;;4901179;29;20221;-77
2022/04/18 14:06:26;;;;;;;2.53;1.73;;;16.00;51.30;;;;;;4918314;29;20263;-77
2022/04/18 14:08:56;;;;;;;2.00;1.80;;;15.80;51.70;;;;;;4913874;29;20276;-75
2022/04/18 14:11:24;;;;;;;2.23;1.70;;;16.10;53.00;;;;;;4909680;29;20221;-75
2022/04/18 14:13:53;;;;;;;1.87;1.43;;;16.00;51.30;;;;;;4900924;29;20236;-75
2022/04/18 14:21:58;;;;;;;1.70;1.60;;;15.50;52.40;;;;;;4900234;29;20201;-77
2022/04/18 14:24:26;;;;;;;2.33;1.50;;;15.90;54.10;;;;;;4903437;29;20220;-76
2022/04/18 14:26:54;;;;;;;2.50;1.60;;;16.10;53.80;;;;;;4900708;29;20222;-76
2022/04/18 14:29:22;;;;;;;3.17;1.60;;;15.90;52.70;;;;;;4899112;29;20249;-77
2022/04/18 14:31:51;;;;;;;3.40;1.77;;;15.60;52.90;;;;;;4889465;29;20209;-76
2022/04/18 14:34:19;;;;;;;1.83;1.60;;;15.50;51.40;;;;;;4879493;29;20230;-76
2022/04/18 14:36:48;;;;;;;6.30;2.47;;;15.50;53.60;;;;;;4889058;29;20230;-76
2022/04/18 14:39:18;;;;;;;2.83;1.80;;;15.50;52.30;;;;;;4894986;29;20237;-77
2022/04/18 14:41:46;;;;;;;4.67;1.60;;;15.30;53.00;;;;;;4882130;29;20331;-75
2022/04/18 14:44:17;;;;;;;2.27;1.60;;;15.60;52.80;;;;;;4884519;29;20243;-76
2022/04/18 14:46:45;;;;;;;2.60;1.80;;;15.30;53.70;;;;;;4901609;29;20241;-75
2022/04/18 14:49:15;;;;;;;2.70;1.63;;;15.40;53.50;;;;;;4898171;29;20213;-77
2022/04/18 14:51:43;;;;;;;2.63;1.60;;;15.50;53.50;;;;;;4899895;29;20214;-76
2022/04/18 14:54:12;;;;;;;2.37;1.97;;;15.50;55.00;;;;;;4918372;29;20258;-77
2022/04/18 14:56:41;;;;;;;2.10;1.60;;;15.50;54.70;;;;;;4921211;29;20206;-76
2022/04/18 14:59:10;;;;;;;1.50;1.40;;;15.60;55.40;;;;;;4905621;29;20270;-77
2022/04/18 15:01:38;;;;;;;2.33;1.40;;;15.80;55.30;;;;;;4898325;29;20256;-78
2022/04/18 15:04:07;;;;;;;3.03;1.50;;;15.60;52.80;;;;;;4898799;29;20209;-76
2022/04/18 15:06:37;;;;;;;2.17;1.40;;;15.60;54.50;;;;;;4897801;29;20225;-77
2022/04/18 15:09:05;;;;;;;1.43;1.30;;;15.60;53.90;;;;;;4897464;29;20260;-76
2022/04/18 15:11:34;;;;;;;1.50;1.30;;;15.60;55.60;;;;;;4897631;29;20305;-76
2022/04/18 15:14:02;;;;;;;3.07;1.30;;;15.50;54.50;;;;;;4897468;29;20304;-77
2022/04/18 15:16:30;;;;;;;1.80;1.23;;;15.70;54.10;;;;;;4898400;29;20213;-77
2022/04/18 15:19:01;;;;;;;1.67;1.30;;;15.70;53.00;;;;;;4896988;29;20256;-76
2022/04/18 15:21:29;;;;;;;1.60;1.50;;;15.60;53.30;;;;;;4898108;29;20214;-77
2022/04/18 15:24:02;;;;;;;1.70;1.10;;;15.60;52.80;;;;;;4896838;29;20198;-77
2022/04/18 15:26:30;;;;;;;1.57;1.33;;;15.50;54.50;;;;;;4897823;29;20259;-77
2022/04/18 15:28:58;;;;;;;1.67;1.20;;;15.60;52.60;;;;;;4897768;29;20300;-78
2022/04/18 15:34:12;;;;;;;1.93;1.43;;;15.50;53.20;;;;;;4897407;29;20749;-78
2022/04/18 15:36:40;;;;;;;2.47;1.33;;;15.20;56.30;;;;;;4897587;29;20260;-76
2022/04/18 15:39:10;;;;;;;1.77;1.20;;;15.20;55.10;;;;;;4897867;29;20260;-76
2022/04/18 15:41:38;;;;;;;2.87;1.37;;;15.20;55.50;;;;;;4897563;29;20316;-75
2022/04/18 15:44:06;;;;;;;1.50;1.40;;;15.30;55.00;;;;;;4886088;29;20289;-76
2022/04/18 15:46:36;;;;;;;1.30;1.20;;;15.30;54.50;;;;;;4881045;29;20281;-76
2022/04/18 15:49:04;;;;;;;1.03;1.00;;;14.80;54.60;;;;;;4879239;29;20210;-76
2022/04/18 15:51:32;;;;;;;1.40;1.30;;;14.50;54.20;;;;;;4878885;29;20258;-77
2022/04/18 15:54:01;;;;;;;2.30;1.23;;;14.40;54.60;;;;;;4877941;29;20222;-76
2022/04/18 15:56:32;;;;;;;1.20;1.10;;;14.30;54.80;;;;;;4879131;29;20242;-75
2022/04/18 15:59:06;;;;;;;3.07;1.20;;;14.30;55.20;;;;;;4878621;29;20201;-77
2022/04/18 16:01:34;;;;;;;1.63;1.30;;;14.30;55.50;;;;;;4879001;29;20222;-77
2022/04/18 16:04:05;;;;;;;1.47;1.30;;;14.40;56.90;;;;;;4879030;29;20317;-77
2022/04/18 16:06:33;;;;;;;1.20;1.10;;;14.40;56.20;;;;;;4895332;29;20289;-77
2022/04/18 16:09:02;;;;;;;2.20;1.13;;;14.50;55.00;;;;;;4895553;29;20249;-77
2022/04/18 16:11:32;;;;;;;3.87;1.57;;;14.30;56.20;;;;;;4896732;29;20269;-76
2022/04/18 16:14:03;;;;;;;1.80;1.57;;;14.20;56.90;;;;;;4897430;29;20245;-78
2022/04/18 16:16:33;;;;;;;4.83;2.77;;;14.10;56.10;;;;;;4896888;29;20237;-75
2022/04/18 16:19:01;;;;;;;2.13;1.60;;;13.80;56.20;;;;;;4896869;29;20256;-77
2022/04/18 16:21:30;;;;;;;2.73;1.50;;;13.80;57.90;;;;;;4896911;29;20240;-77
2022/04/18 16:23:59;;;;;;;1.97;1.50;;;13.60;56.30;;;;;;4897300;29;20673;-74
2022/04/18 16:26:29;;;;;;;4.33;2.10;;;13.60;56.40;;;;;;4897530;29;20660;-75
2022/04/18 16:31:54;;;;;;;1.80;1.50;;;13.20;56.70;;;;;;4899005;29;20221;-75
2022/04/18 16:34:24;;;;;;;2.60;1.40;;;13.20;57.40;;;;;;4899836;29;20208;-77
2022/04/18 16:36:53;;;;;;;1.40;1.30;;;13.30;57.50;;;;;;4899828;29;20233;-76
2022/04/18 16:39:21;;;;;;;2.90;1.50;;;13.30;57.80;;;;;;4899316;29;20218;-77
2022/04/18 16:47:22;;;;;;;1.93;1.63;;;13.20;58.20;;;;;;4900297;29;20228;-77
2022/04/18 16:49:51;;;;;;;2.10;1.40;;;13.20;57.90;;;;;;4900351;29;20273;-78
2022/04/18 16:52:19;;;;;;;1.67;1.30;;;13.00;58.30;;;;;;4900537;29;20234;-77
2022/04/18 16:54:47;;;;;;;2.60;1.67;;;13.00;58.80;;;;;;4899784;29;20213;-77
2022/04/18 16:57:16;;;;;;;4.17;1.67;;;13.00;58.70;;;;;;4900136;29;20209;-76
2022/04/18 16:59:45;;;;;;;3.37;1.60;;;12.90;59.50;;;;;;4899296;29;20264;-78
2022/04/18 17:02:14;;;;;;;1.53;1.40;;;12.80;58.90;;;;;;4901335;29;20210;-77
2022/04/18 17:04:45;;;;;;;2.43;1.80;;;12.70;59.10;;;;;;4899737;29;20316;-77
2022/04/18 17:07:13;;;;;;;1.60;1.50;;;12.60;59.20;;;;;;4899548;29;20213;-77
2022/04/18 17:09:41;;;;;;;1.73;1.60;;;12.60;60.10;;;;;;4899601;29;20213;-77
2022/04/18 17:12:10;;;;;;;2.03;1.47;;;12.50;60.00;;;;;;4899509;29;20260;-77
2022/04/18 17:14:38;;;;;;;2.70;1.50;;;12.40;60.80;;;;;;4899127;29;20221;-77
2022/04/18 17:17:10;;;;;;;3.67;1.80;;;12.40;60.50;;;;;;4897950;29;20242;-78
2022/04/18 17:19:39;;;;;;;1.53;1.43;;;12.30;61.40;;;;;;4894429;29;20304;-76
2022/04/18 17:22:08;;;;;;;1.80;1.60;;;12.20;60.40;;;;;;4903631;29;20242;-76
2022/04/18 17:24:38;;;;;;;3.60;1.60;;;12.20;61.20;;;;;;4902412;29;20712;-77
2022/04/18 17:27:11;;;;;;;1.57;1.43;;;12.10;62.10;;;;;;4892873;29;20205;-75
2022/04/18 17:29:39;;;;;;;2.43;1.63;;;12.10;61.40;;;;;;4900307;29;20289;-77
2022/04/18 17:32:09;;;;;;;2.10;1.63;;;12.00;61.70;;;;;;4899692;29;20252;-75
2022/04/18 17:34:37;;;;;;;1.93;1.60;;;12.00;60.50;;;;;;4903969;29;20248;-76
2022/04/18 17:37:05;;;;;;;1.70;1.40;;;11.90;60.50;;;;;;4915823;29;20233;-76
2022/04/18 17:39:38;;;;;;;2.13;1.70;;;11.80;62.70;;;;;;4905128;29;20250;-76
2022/04/18 17:42:08;;;;;;;2.33;1.80;;;11.70;63.90;;;;;;4900613;29;20213;-75